createdAt,value
2023-04-04T00:02:00.840Z,1.67
2023-04-04T00:05:04.891Z,6.00
2023-04-04T00:08:09.845Z,4.00
2023-04-04T00:11:13.955Z,7.67
2023-04-04T00:14:17.647Z,6.00
2023-04-04T00:17:21.489Z,1.00
2023-04-04T00:20:24.970Z,3.00
2023-04-04T00:23:29.843Z,6.33
2023-04-04T00:26:34.534Z,3.00
2023-04-04T00:29:41.172Z,3.00
2023-04-04T00:32:44.844Z,4.00
2023-04-04T00:35:49.975Z,3.00
2023-04-04T00:38:54.941Z,3.00
2023-04-04T00:42:00.800Z,4.00
2023-04-04T00:45:04.575Z,2.33
2023-04-04T00:48:10.697Z,1.00
2023-04-04T00:51:14.197Z,3.67
2023-04-04T00:54:19.376Z,3.00
2023-04-04T00:57:23.310Z,0.67
2023-04-04T01:00:27.715Z,1.00
2023-04-04T01:03:31.310Z,3.67
2023-04-04T01:06:34.787Z,9.33
2023-04-04T01:09:41.128Z,7.00
2023-04-04T01:12:44.920Z,2.33
2023-04-04T01:15:49.225Z,6.67
2023-04-04T01:18:56.404Z,6.00
2023-04-04T01:22:03.054Z,3.33
2023-04-04T01:25:09.297Z,5.33
2023-04-04T01:28:16.566Z,6.00
2023-04-04T01:31:27.460Z,6.00
2023-04-04T01:34:44.145Z,5.00
2023-04-04T01:37:56.146Z,6.33
2023-04-04T01:41:04.998Z,3.00
2023-04-04T01:44:12.941Z,1.00
2023-04-04T01:47:17.053Z,4.00
2023-04-04T01:50:21.060Z,5.67
2023-04-04T01:53:24.533Z,1.00
2023-04-04T01:56:29.113Z,12.00
2023-04-04T01:59:34.331Z,0.00
2023-04-04T02:02:38.239Z,0.00
2023-04-04T02:05:44.215Z,1.00
2023-04-04T02:08:48.267Z,3.67
2023-04-04T02:11:52.025Z,3.00
2023-04-04T02:14:57.072Z,1.67
2023-04-04T02:18:02.079Z,1.00
2023-04-04T02:21:05.955Z,1.00
2023-04-04T02:24:10.037Z,3.00
2023-04-04T02:27:13.498Z,5.33
2023-04-04T02:30:19.672Z,3.00
2023-04-04T02:33:24.341Z,4.00
2023-04-04T02:36:28.096Z,1.00
2023-04-04T02:39:33.276Z,1.67
2023-04-04T02:42:36.791Z,6.33
2023-04-04T02:45:41.946Z,1.67
2023-04-04T02:48:56.457Z,0.33
2023-04-04T02:52:00.349Z,4.00
2023-04-04T02:55:09.353Z,0.00
2023-04-04T02:58:16.370Z,6.33
2023-04-04T03:01:21.381Z,6.67
2023-04-04T03:04:24.941Z,3.67
2023-04-04T03:07:28.572Z,9.67
2023-04-04T03:10:32.395Z,8.33
2023-04-04T03:13:38.805Z,9.67
2023-04-04T03:16:44.159Z,5.33
2023-04-04T03:19:48.286Z,7.67
2023-04-04T03:22:51.984Z,6.67
2023-04-04T03:25:56.458Z,4.00
2023-04-04T03:29:00.132Z,9.00
2023-04-04T03:32:07.566Z,6.67
2023-04-04T03:35:12.000Z,3.67
2023-04-04T03:38:17.727Z,11.33
2023-04-04T03:41:21.620Z,6.00
2023-04-04T03:44:25.616Z,6.00
2023-04-04T03:47:31.379Z,12.33
2023-04-04T03:50:38.249Z,7.00
2023-04-04T03:53:42.003Z,4.67
2023-04-04T03:56:45.797Z,6.00
2023-04-04T03:59:51.485Z,4.00
2023-04-04T04:02:59.778Z,7.33
2023-04-04T04:06:03.307Z,13.00
2023-04-04T04:09:06.811Z,3.67
2023-04-04T04:12:13.212Z,9.33
2023-04-04T04:15:18.706Z,4.00
2023-04-04T04:18:24.756Z,6.00
2023-04-04T04:21:30.749Z,6.67
2023-04-04T04:24:34.278Z,7.33
2023-04-04T04:27:40.519Z,9.33
2023-04-04T04:30:46.465Z,4.00
2023-04-04T04:33:53.831Z,3.33
2023-04-04T04:37:02.186Z,5.67
2023-04-04T04:40:17.376Z,4.00
2023-04-04T04:43:31.668Z,8.33
2023-04-04T04:46:35.467Z,4.00
2023-04-04T04:49:49.534Z,3.67
2023-04-04T04:53:00.300Z,14.67
2023-04-04T04:56:03.835Z,16.67
2023-04-04T04:59:09.256Z,7.00
2023-04-04T05:02:15.611Z,7.00
2023-04-04T05:05:22.942Z,6.00
2023-04-04T05:08:29.463Z,7.00
2023-04-04T05:11:53.276Z,6.00
2023-04-04T05:15:01.164Z,10.33
2023-04-04T05:18:05.901Z,9.33
2023-04-04T05:21:14.780Z,7.00
2023-04-04T05:24:18.841Z,4.67
2023-04-04T05:27:22.518Z,6.33
2023-04-04T05:30:32.603Z,7.00
2023-04-04T05:33:48.051Z,6.00
2023-04-04T05:37:13.304Z,0.00
2023-04-04T05:40:18.769Z,6.67
2023-04-04T05:43:27.392Z,12.00
2023-04-04T05:46:36.876Z,4.67
2023-04-04T05:49:41.088Z,4.67
2023-04-04T05:52:48.259Z,1.00
2023-04-04T05:55:54.195Z,3.00
2023-04-04T05:59:04.702Z,1.00
2023-04-04T06:02:11.819Z,4.33
2023-04-04T06:05:19.337Z,0.00
2023-04-04T06:08:24.296Z,1.00
2023-04-04T06:11:27.783Z,4.67
2023-04-04T06:14:39.550Z,1.00
2023-04-04T06:17:47.037Z,3.00
2023-04-04T06:20:50.929Z,6.00
2023-04-04T06:23:57.005Z,1.00
2023-04-04T06:27:00.969Z,1.00
2023-04-04T06:30:05.021Z,0.67
2023-04-04T06:33:08.850Z,1.00
2023-04-04T06:36:17.896Z,0.00
2023-04-04T06:39:24.610Z,3.67
2023-04-04T06:42:30.611Z,4.33
2023-04-04T06:45:39.004Z,1.67
2023-04-04T06:48:42.848Z,1.00
2023-04-04T06:51:50.835Z,3.67
2023-04-04T06:54:57.109Z,3.33
2023-04-04T06:58:00.670Z,3.00
2023-04-04T07:01:04.454Z,0.00
2023-04-04T07:04:08.028Z,1.00
2023-04-04T07:07:12.998Z,6.33
2023-04-04T07:10:17.881Z,15.67
2023-04-04T07:13:21.198Z,4.33
2023-04-04T07:16:24.486Z,0.00
2023-04-04T07:19:31.389Z,1.00
2023-04-04T07:22:39.570Z,0.00
2023-04-04T07:25:44.612Z,0.00
2023-04-04T07:28:47.948Z,0.00
2023-04-04T07:31:51.512Z,1.67
2023-04-04T07:34:55.544Z,1.00
2023-04-04T07:37:59.335Z,0.00
2023-04-04T07:41:04.420Z,0.00
2023-04-04T07:44:08.081Z,0.00
2023-04-04T07:47:11.940Z,0.00
2023-04-04T07:50:16.171Z,1.00
2023-04-04T07:53:19.657Z,0.00
2023-04-04T07:56:24.723Z,0.00
2023-04-04T07:59:28.196Z,1.00
2023-04-04T08:02:31.717Z,0.00
2023-04-04T08:05:35.283Z,1.00
2023-04-04T08:08:38.924Z,0.00
2023-04-04T08:11:44.101Z,0.00
2023-04-04T08:14:48.132Z,0.00
2023-04-04T08:17:51.440Z,0.00
2023-04-04T08:20:54.896Z,0.00
2023-04-04T08:23:58.626Z,1.00
2023-04-04T08:27:05.815Z,11.33
2023-04-04T08:30:10.416Z,1.00
2023-04-04T08:33:14.019Z,0.00
2023-04-04T08:36:18.098Z,0.00
2023-04-04T08:39:21.987Z,1.00
2023-04-04T08:42:29.932Z,0.00
2023-04-04T08:45:34.960Z,3.00
2023-04-04T08:48:40.063Z,0.67
2023-04-04T08:51:45.863Z,0.33
2023-04-04T08:54:51.451Z,0.00
2023-04-04T08:57:56.245Z,0.33
2023-04-04T09:00:59.726Z,0.33
2023-04-04T09:04:04.397Z,0.00
2023-04-04T09:07:08.521Z,1.00
2023-04-04T09:10:13.296Z,3.00
2023-04-04T09:13:18.519Z,3.33
2023-04-04T09:16:22.133Z,0.00
2023-04-04T09:19:26.477Z,2.33
2023-04-04T09:22:30.000Z,0.67
2023-04-04T09:25:33.695Z,0.00
2023-04-04T09:28:38.549Z,0.00
2023-04-04T09:31:46.875Z,0.00
2023-04-04T09:34:50.548Z,1.00
2023-04-04T09:37:54.371Z,14.67
2023-04-04T09:40:58.283Z,0.00
2023-04-04T09:44:04.236Z,3.00
2023-04-04T09:50:33.889Z,4.00
2023-04-04T09:53:38.450Z,7.00
2023-04-04T09:56:43.755Z,6.00
2023-04-04T09:59:48.790Z,10.67
2023-04-04T10:02:53.557Z,1.00
2023-04-04T10:05:59.195Z,0.00
2023-04-04T10:09:04.321Z,3.00
2023-04-04T10:12:11.176Z,0.33
2023-04-04T10:15:17.526Z,3.00
2023-04-04T10:18:21.944Z,0.00
2023-04-04T10:21:28.071Z,0.33
2023-04-04T10:24:31.712Z,3.00
2023-04-04T10:27:35.480Z,6.67
2023-04-04T10:30:55.669Z,17.33
2023-04-04T10:34:13.930Z,3.33
2023-04-04T10:37:27.141Z,5.33
2023-04-04T10:40:39.104Z,3.67
2023-04-04T10:43:44.798Z,1.00
2023-04-04T10:46:54.215Z,3.00
2023-04-04T10:49:58.066Z,1.00
2023-04-04T10:53:04.513Z,0.00
2023-04-04T10:56:08.860Z,1.50
2023-04-04T10:59:14.509Z,15.33
2023-04-04T11:02:19.804Z,1.00
2023-04-04T11:05:25.830Z,3.00
2023-04-04T11:08:30.647Z,3.00
2023-04-04T11:12:10.072Z,0.00
2023-04-04T11:15:15.296Z,3.67
2023-04-04T11:18:30.493Z,5.33
2023-04-04T11:21:46.518Z,23.67
2023-04-04T11:24:50.214Z,9.33
2023-04-04T11:27:56.626Z,18.33
2023-04-04T11:31:26.533Z,6.33
2023-04-04T11:34:34.673Z,0.00
2023-04-04T11:37:45.217Z,1.67
2023-04-04T11:40:56.462Z,20.33
2023-04-04T11:44:10.164Z,6.67
2023-04-04T11:47:13.945Z,1.00
2023-04-04T11:50:21.005Z,12.00
2023-04-04T11:53:24.454Z,9.67
2023-04-04T11:56:28.092Z,14.33
2023-04-04T11:59:31.882Z,25.33
2023-04-04T12:02:36.851Z,9.33
2023-04-04T12:05:44.185Z,1.67
2023-04-04T12:08:48.297Z,1.00
2023-04-04T12:11:52.263Z,20.33
2023-04-04T12:15:03.404Z,26.67
2023-04-04T12:18:23.213Z,15.00
2023-04-04T12:21:28.441Z,13.00
2023-04-04T12:24:32.608Z,13.67
2023-04-04T12:27:36.179Z,10.33
2023-04-04T12:30:40.219Z,10.33
2023-04-04T12:33:44.222Z,6.33
2023-04-04T12:36:50.352Z,12.33
2023-04-04T12:39:54.679Z,10.00
2023-04-04T12:42:59.245Z,7.67
2023-04-04T12:46:04.398Z,9.00
2023-04-04T12:49:09.732Z,6.00
2023-04-04T12:52:22.017Z,10.00
2023-04-04T12:55:27.164Z,10.00
2023-04-04T12:58:30.707Z,17.33
2023-04-04T13:01:34.393Z,69.00
2023-04-04T13:04:40.045Z,30.00
2023-04-04T13:07:46.069Z,21.67
2023-04-04T13:11:05.310Z,25.67
2023-04-04T13:14:10.489Z,52.00
2023-04-04T13:17:19.550Z,9.67
2023-04-04T13:20:24.672Z,14.33
2023-04-04T13:23:29.692Z,35.00
2023-04-04T13:26:33.353Z,10.67
2023-04-04T13:29:37.058Z,9.00
2023-04-04T13:32:40.689Z,12.00
2023-04-04T13:35:45.052Z,20.67
2023-04-04T13:38:49.796Z,30.33
2023-04-04T13:41:54.005Z,22.67
2023-04-04T13:44:58.678Z,9.00
2023-04-04T13:48:02.137Z,13.33
2023-04-04T13:51:05.555Z,3.33
2023-04-04T13:54:11.475Z,7.00
2023-04-04T13:57:15.067Z,24.00
2023-04-04T14:00:19.324Z,5.33
2023-04-04T14:03:22.879Z,3.00
2023-04-04T14:06:26.854Z,9.33
2023-04-04T14:09:31.857Z,4.00
2023-04-04T14:12:35.692Z,20.33
2023-04-04T14:15:40.255Z,10.00
2023-04-04T14:18:44.061Z,12.33
2023-04-04T14:21:47.439Z,30.33
2023-04-04T14:24:52.374Z,12.33
2023-04-04T14:27:56.106Z,10.00
2023-04-04T14:31:00.271Z,12.67
2023-04-04T14:34:05.199Z,31.67
2023-04-04T14:37:08.553Z,39.00
2023-04-04T14:40:14.162Z,20.00
2023-04-04T14:43:17.639Z,20.33
2023-04-04T14:46:21.189Z,30.00
2023-04-04T14:49:25.458Z,9.00
2023-04-04T14:52:30.483Z,0.00
2023-04-04T14:55:35.444Z,20.00
2023-04-04T14:58:38.967Z,7.00
2023-04-04T15:01:42.817Z,4.67
2023-04-04T15:04:47.636Z,1.00
2023-04-04T15:07:51.278Z,1.00
2023-04-04T15:10:56.260Z,8.33
2023-04-04T15:13:59.607Z,6.67
2023-04-04T15:17:03.022Z,7.00
2023-04-04T15:20:08.594Z,4.00
2023-04-04T15:23:12.161Z,9.00
2023-04-04T15:26:16.990Z,17.33
2023-04-04T15:29:20.489Z,6.25
2023-04-04T15:32:24.056Z,9.00
2023-04-04T15:35:27.610Z,9.33
2023-04-04T15:38:31.155Z,8.33
2023-04-04T15:41:36.285Z,4.00
2023-04-04T15:44:40.137Z,29.67
2023-04-04T15:47:45.236Z,27.33
2023-04-04T15:50:48.902Z,10.00
2023-04-04T15:53:55.315Z,17.67
2023-04-04T15:57:00.183Z,39.33
2023-04-04T16:00:03.939Z,4.00
2023-04-04T16:03:11.377Z,17.33
2023-04-04T16:06:14.835Z,16.67
2023-04-04T16:09:18.300Z,5.00
2023-04-04T16:12:26.031Z,16.00
2023-04-04T16:15:29.609Z,6.33
2023-04-04T16:18:33.215Z,2.33
2023-04-04T16:21:39.446Z,12.33
2023-04-04T16:24:42.799Z,24.67
2023-04-04T16:27:47.638Z,15.00
2023-04-04T16:30:51.436Z,16.33
2023-04-04T16:33:54.710Z,22.33
2023-04-04T16:36:58.752Z,45.33
2023-04-04T16:40:02.309Z,59.33
2023-04-04T16:43:07.470Z,46.00
2023-04-04T16:46:11.149Z,62.00
2023-04-04T16:49:17.299Z,40.00
2023-04-04T16:52:20.730Z,42.33
2023-04-04T16:55:26.345Z,15.33
2023-04-04T16:58:31.174Z,10.00
2023-04-04T17:01:34.767Z,13.00
2023-04-04T17:04:41.067Z,26.67
2023-04-04T17:07:45.429Z,15.33
2023-04-04T17:10:48.891Z,28.00
2023-04-04T17:13:54.066Z,47.00
2023-04-04T17:17:00.765Z,50.25
2023-04-04T17:20:05.421Z,15.00
2023-04-04T17:23:08.846Z,15.00
2023-04-04T17:26:12.457Z,4.00
2023-04-04T17:29:18.801Z,8.33
2023-04-04T17:32:22.195Z,9.00
2023-04-04T17:35:25.658Z,9.67
2023-04-04T17:38:30.984Z,9.00
2023-04-04T17:41:34.525Z,9.00
2023-04-04T17:44:39.425Z,11.33
2023-04-04T17:47:46.391Z,9.67
2023-04-04T17:50:51.814Z,6.67
2023-04-04T17:53:55.242Z,4.67
2023-04-04T17:56:59.402Z,6.00
2023-04-04T18:00:04.969Z,8.33
2023-04-04T18:03:11.965Z,3.33
2023-04-04T18:06:15.916Z,6.00
2023-04-04T18:09:19.689Z,6.00
2023-04-04T18:12:23.563Z,14.67
2023-04-04T18:15:28.676Z,60.33
2023-04-04T18:18:32.599Z,66.25
2023-04-04T18:21:35.945Z,70.50
2023-04-04T18:24:39.330Z,63.00
2023-04-04T18:27:42.678Z,78.25
2023-04-04T18:30:47.576Z,28.00
2023-04-04T18:33:50.960Z,32.67
2023-04-04T18:36:54.370Z,25.33
2023-04-04T18:39:57.787Z,19.33
2023-04-04T18:43:03.001Z,18.00
2023-04-04T18:46:08.653Z,18.00
2023-04-04T18:49:12.196Z,21.00
2023-04-04T18:52:15.659Z,23.67
2023-04-04T18:55:19.083Z,37.33
2023-04-04T18:58:22.834Z,29.00
2023-04-04T19:01:29.002Z,31.00
2023-04-04T19:04:36.182Z,17.33
2023-04-04T19:07:42.145Z,15.33
2023-04-04T19:10:47.581Z,15.67
2023-04-04T19:13:51.516Z,29.33
2023-04-04T19:16:56.700Z,36.33
2023-04-04T19:20:00.184Z,33.33
2023-04-04T19:23:03.656Z,27.00
2023-04-04T19:26:07.801Z,28.00
2023-04-04T19:29:11.055Z,30.00
2023-04-04T19:32:19.769Z,22.00
2023-04-04T19:35:54.664Z,31.67
2023-04-04T19:38:58.339Z,27.00
2023-04-04T19:42:02.887Z,24.33
2023-04-04T19:45:14.222Z,27.33
2023-04-04T19:48:42.866Z,27.33
2023-04-04T19:51:52.718Z,18.67
2023-04-04T19:54:56.388Z,18.67
2023-04-04T19:58:00.218Z,18.33
2023-04-04T20:01:03.964Z,16.00
2023-04-04T20:04:10.318Z,19.33
2023-04-04T20:07:14.923Z,18.33
2023-04-04T20:10:37.883Z,21.33
2023-04-04T20:13:42.112Z,22.67
2023-04-04T20:16:45.873Z,22.00
2023-04-04T20:19:50.750Z,19.00
2023-04-04T20:22:54.340Z,16.67
2023-04-04T20:26:07.541Z,19.67
2023-04-04T20:29:13.485Z,24.67
2023-04-04T20:32:17.064Z,18.33
2023-04-04T20:35:29.557Z,14.33
2023-04-04T20:38:34.473Z,15.33
2023-04-04T20:41:37.963Z,18.00
2023-04-04T20:44:41.504Z,13.00
2023-04-04T20:47:47.586Z,16.00
2023-04-04T20:50:52.542Z,16.00
2023-04-04T20:53:57.533Z,28.67
2023-04-04T20:57:01.130Z,27.50
2023-04-04T21:00:28.142Z,30.50
2023-04-04T21:03:37.761Z,32.00
2023-04-04T21:06:42.609Z,32.75
2023-04-04T21:09:47.280Z,33.25
2023-04-04T21:12:51.010Z,23.00
2023-04-04T21:15:59.957Z,25.25
2023-04-04T21:19:03.572Z,17.75
2023-04-04T21:22:08.898Z,27.00
2023-04-04T21:25:39.835Z,26.50
2023-04-04T21:28:44.842Z,25.50
2023-04-04T21:31:48.943Z,32.25
2023-04-04T21:34:52.921Z,27.25
2023-04-04T21:37:57.816Z,27.25
2023-04-04T21:41:02.017Z,27.25
2023-04-04T21:44:07.298Z,30.75
2023-04-04T21:47:10.687Z,24.00
2023-04-04T21:50:14.316Z,29.75
2023-04-04T21:53:19.057Z,23.50
2023-04-04T21:56:27.300Z,20.00
2023-04-04T21:59:30.907Z,12.25
2023-04-04T22:02:34.607Z,23.00
2023-04-04T22:05:39.253Z,21.00
2023-04-04T22:08:44.753Z,18.25
2023-04-04T22:11:48.224Z,18.00
2023-04-04T22:14:53.120Z,22.00
2023-04-04T22:18:03.929Z,15.75
2023-04-04T22:21:07.609Z,14.50
2023-04-04T22:24:13.925Z,8.00
2023-04-04T22:27:17.316Z,11.00
2023-04-04T22:30:21.826Z,12.75
2023-04-04T22:33:26.416Z,11.75
2023-04-04T22:36:29.822Z,9.00
2023-04-04T22:39:34.782Z,9.50
2023-04-04T22:42:38.283Z,10.50
2023-04-04T22:45:41.967Z,15.50
2023-04-04T22:48:46.451Z,9.75
2023-04-04T22:51:49.797Z,15.50
2023-04-04T22:54:54.595Z,11.50
2023-04-04T22:57:58.365Z,9.50
2023-04-04T23:01:01.756Z,10.00
2023-04-04T23:04:05.234Z,9.00
2023-04-04T23:07:08.837Z,12.00
2023-04-04T23:10:16.926Z,14.00
2023-04-04T23:13:20.254Z,14.00
2023-04-04T23:16:26.536Z,9.00
2023-04-04T23:19:29.986Z,15.00
2023-04-04T23:22:33.750Z,9.00
2023-04-04T23:25:38.633Z,13.50
2023-04-04T23:28:42.269Z,12.00
2023-04-04T23:31:45.783Z,10.00
2023-04-04T23:34:49.244Z,11.75
2023-04-04T23:37:52.824Z,9.50
2023-04-04T23:40:57.589Z,13.25
2023-04-04T23:44:01.153Z,3.50
2023-04-04T23:47:04.862Z,9.50
2023-04-04T23:50:09.004Z,16.25
2023-04-04T23:53:12.740Z,15.75
2023-04-04T23:56:17.978Z,10.50
2023-04-04T23:59:21.396Z,16.25
